Aniwa, WI (54408)

11:37 AM CST on February 08, 2016 (GMT -0600)
Antigo, Wisconsin | | Change Station
CLOSE
Current Station
Personal Weather Station
Location: Antigo, WI
Elevation: 1521 ft
Nearby Weather Stations

Elev 1521 ft 45.14 °N, 89.16 °W | Updated 2 minutes ago

Overcast
Overcast
23.9 °F
Feels Like 18 °F
N
5.0
Wind Variable Wind from North
Gusts 13.0 mph

Today
High -- | Low -- °F
--% Chance of Precip.
Yesterday
High -- | Low -- °F
Precip. -- in
Pressure 29.65 in
Visibility 10.0 miles
Clouds Mostly Cloudy 2800 ft
Overcast 3300 ft
Windchill 18 °F
Dew Point 19 °F
Humidity 81%
Rainfall 0.00 in
Snow Depth Not available.
7:08 AM 5:14 PM
New Moon, 0% visible
METAR KAIG 081715Z AUTO 35016G22KT 10SM BKN028 OVC033 M05/M08 A2965 RMK AO2 T10521083
Pressure 29.65 in
Visibility 10.0 miles
Clouds Mostly Cloudy 2800 ft
Overcast 3300 ft
Windchill 18 °F
Dew Point 19 °F
Humidity 81%
Rainfall 0.00 in
Snow Depth Not available.
7:08 AM 5:14 PM
New Moon, 0% visible
METAR KAIG 081715Z AUTO 35016G22KT 10SM BKN028 OVC033 M05/M08 A2965 RMK AO2 T10521083

10-Day Weather Forecast

Almanac

Astronomy

Feb. 08, 2016 Rise Set
Actual Time
Civil Twilight
Nautical Twilight
Astronomical Twilight
Moon
Length of Visible Light
Length of Day
Tomorrow will be .
, % of the Moon is Illuminated

Today's Extremes

State Highs State Lows

Community

WunderPhotos

Upload Photos

1,891,473 photos uploaded!

WunderBlog® & News

Nearby

Air Quality

  Air Quality AQ Index Pollutant
Not available.

Snow Depth

Station Depth Elevation

Earthquake Activity

City Distance Mag. Time & Date
Minimum magnitude displayed is 2.5.

Coastal Water Temperatures

Place Temperature

Stations

Nearby Weather Stations

Station Location Temp. Windchill Dew Point Humidity Wind Precip. Elev Updated Type
                   

Watches & Warnings

There are currently no watches in effect.